Time;durP1;ratioP1;P1;durP2;ratioP2;P2;SDS_P1;SDS_P2;PMS_P1;PMS_P2;Temp;Humidity;BMP_temperature;BMP_pressure;BME280_temperature;BME280_humidity;BME280_pressure;Samples;Min_cycle;Max_cycle;Signal;HPM_P1;HPM_P2
2023/04/30 00:00:10;;;;;;;6.28;1.73;;;8.60;99.90;;;;;;7401786;19;19925;-76
2023/04/30 00:02:41;;;;;;;4.55;1.70;;;8.60;99.90;;;;;;7397987;19;19955;-75
2023/04/30 00:05:11;;;;;;;4.40;1.65;;;8.70;99.90;;;;;;7398572;19;19918;-76
2023/04/30 00:07:41;;;;;;;8.63;2.25;;;8.50;99.90;;;;;;7398235;19;19918;-75
2023/04/30 00:10:11;;;;;;;9.00;2.95;;;8.50;99.90;;;;;;7398793;19;20379;-76
2023/04/30 00:12:40;;;;;;;6.53;2.42;;;8.50;99.90;;;;;;7398235;19;20369;-75
2023/04/30 00:15:10;;;;;;;9.60;2.03;;;8.40;99.90;;;;;;7399323;19;19919;-75
2023/04/30 00:17:41;;;;;;;4.18;2.55;;;8.40;99.90;;;;;;7401149;19;19926;-75
2023/04/30 00:20:11;;;;;;;8.43;1.80;;;8.30;99.90;;;;;;7399349;19;19921;-76
2023/04/30 00:22:40;;;;;;;4.45;1.90;;;8.30;99.90;;;;;;7402335;19;19923;-76
2023/04/30 00:25:10;;;;;;;4.93;2.15;;;8.20;99.90;;;;;;7398737;19;20271;-77
2023/04/30 00:27:39;;;;;;;4.50;1.77;;;8.40;99.90;;;;;;7397808;19;19929;-76
2023/04/30 00:30:09;;;;;;;4.55;1.60;;;8.20;99.90;;;;;;7398530;19;20257;-76
2023/04/30 00:32:41;;;;;;;7.32;2.00;;;8.10;99.90;;;;;;7398317;19;19915;-75
2023/04/30 00:35:10;;;;;;;3.30;1.77;;;8.10;99.90;;;;;;7402765;19;19958;-75
2023/04/30 00:37:39;;;;;;;5.07;1.67;;;7.90;99.90;;;;;;7398152;19;19925;-76
2023/04/30 00:40:10;;;;;;;4.40;1.70;;;8.00;99.90;;;;;;7397907;19;19922;-75
2023/04/30 00:42:39;;;;;;;4.82;2.17;;;8.00;99.90;;;;;;7397956;19;19922;-75
2023/04/30 00:45:10;;;;;;;9.18;2.60;;;7.90;99.90;;;;;;7397946;19;19926;-76
2023/04/30 00:47:42;;;;;;;6.30;1.90;;;7.90;99.90;;;;;;7398651;19;19915;-75
2023/04/30 00:50:14;;;;;;;;;;;8.00;99.90;;;;;;7403017;19;20569;-76
2023/04/30 00:52:44;;;;;;;7.47;1.95;;;7.90;99.90;;;;;;7397596;19;19970;-75
2023/04/30 00:55:14;;;;;;;4.43;1.90;;;7.90;99.90;;;;;;7400056;19;19929;-75
2023/04/30 00:57:43;;;;;;;2.33;1.55;;;7.80;99.90;;;;;;7404536;19;19922;-75
2023/04/30 01:00:13;;;;;;;6.15;1.80;;;7.80;99.90;;;;;;7404393;19;19918;-75
2023/04/30 01:02:45;;;;;;;3.58;1.77;;;7.80;99.90;;;;;;7402861;19;19918;-75
2023/04/30 01:05:14;;;;;;;4.25;1.65;;;8.60;99.90;;;;;;7403809;19;19923;-75
2023/04/30 01:07:45;;;;;;;8.35;2.08;;;7.80;99.90;;;;;;7405018;19;19929;-76
2023/04/30 01:10:15;;;;;;;5.68;1.77;;;8.60;99.90;;;;;;7404003;19;19914;-75
2023/04/30 01:12:51;;;;;;;4.13;1.80;;;7.70;99.90;;;;;;7404240;19;19919;-75
2023/04/30 01:15:25;;;;;;;4.82;1.63;;;9.00;99.90;;;;;;7403893;19;20427;-75
2023/04/30 01:18:00;;;;;;;2.67;1.90;;;7.80;99.90;;;;;;7404401;19;20245;-76
2023/04/30 01:20:31;;;;;;;9.75;2.28;;;7.50;99.90;;;;;;7403360;19;19914;-76
2023/04/30 01:23:13;;;;;;;3.17;1.77;;;7.70;99.90;;;;;;7403960;19;19918;-75
2023/04/30 01:26:02;;;;;;;7.70;1.90;;;7.70;99.90;;;;;;7407354;19;19949;-76
2023/04/30 01:28:37;;;;;;;3.92;1.60;;;7.50;99.90;;;;;;7402193;19;19946;-75
2023/04/30 01:31:15;;;;;;;4.15;1.98;;;7.50;99.90;;;;;;7404584;19;19926;-76
2023/04/30 01:33:44;;;;;;;4.40;1.55;;;7.50;99.90;;;;;;7403464;19;19919;-75
2023/04/30 01:36:27;;;;;;;4.22;1.70;;;7.50;99.90;;;;;;7403402;19;20936;-75
2023/04/30 01:39:19;;;;;;;3.63;1.58;;;7.40;99.90;;;;;;7403021;19;19925;-75
2023/04/30 01:42:01;;;;;;;4.18;2.03;;;7.40;99.90;;;;;;7404247;19;19925;-75
2023/04/30 01:44:50;;;;;;;4.82;1.50;;;7.40;99.90;;;;;;7403115;19;19933;-75
2023/04/30 01:47:35;;;;;;;2.03;1.60;;;7.40;99.90;;;;;;7403841;19;19923;-75
2023/04/30 01:50:17;;;;;;;4.95;2.20;;;7.30;99.90;;;;;;7402206;19;19915;-76
2023/04/30 01:52:51;;;;;;;6.60;2.30;;;7.30;99.90;;;;;;7406781;19;19978;-76
2023/04/30 01:55:25;;;;;;;4.07;2.17;;;7.30;99.90;;;;;;7402336;19;19926;-75
2023/04/30 01:57:59;;;;;;;2.72;1.70;;;7.20;99.90;;;;;;7403178;19;19930;-76
2023/04/30 02:00:32;;;;;;;4.05;1.88;;;7.20;99.90;;;;;;7402874;19;20028;-76
2023/04/30 02:03:01;;;;;;;2.38;1.70;;;7.10;99.90;;;;;;7400782;19;19922;-76
2023/04/30 02:05:30;;;;;;;2.90;1.70;;;7.60;99.90;;;;;;7401789;19;19922;-76
2023/04/30 02:07:59;;;;;;;7.82;1.80;;;7.10;99.90;;;;;;7401424;19;19918;-76
2023/04/30 02:10:29;;;;;;;3.33;1.73;;;7.00;99.90;;;;;;7402952;19;19922;-75
2023/04/30 02:12:58;;;;;;;5.95;1.73;;;7.10;99.90;;;;;;7401726;19;20987;-75
2023/04/30 02:15:29;;;;;;;5.45;1.60;;;7.10;99.90;;;;;;7404245;19;20340;-75
2023/04/30 02:17:58;;;;;;;4.88;1.80;;;7.00;99.90;;;;;;7405535;19;20356;-75
2023/04/30 02:20:27;;;;;;;7.00;2.35;;;7.00;99.90;;;;;;7403320;19;19956;-77
2023/04/30 02:22:56;;;;;;;7.32;2.35;;;7.00;99.90;;;;;;7402699;19;19919;-76
2023/04/30 02:25:25;;;;;;;4.80;1.50;;;7.60;99.90;;;;;;7402444;19;19922;-75
2023/04/30 02:27:54;;;;;;;9.52;1.88;;;6.90;99.90;;;;;;7401354;19;19921;-75
2023/04/30 02:30:23;;;;;;;2.38;1.50;;;6.80;99.90;;;;;;7401618;19;20309;-75
2023/04/30 02:32:54;;;;;;;7.88;2.10;;;6.80;99.90;;;;;;7403740;19;19933;-75
2023/04/30 02:35:23;;;;;;;3.10;1.50;;;6.80;99.90;;;;;;7402526;19;19923;-75
2023/04/30 02:37:52;;;;;;;4.88;1.90;;;6.70;99.90;;;;;;7401904;19;19921;-76
2023/04/30 02:40:21;;;;;;;4.45;2.00;;;6.90;99.90;;;;;;7402085;19;19919;-76
2023/04/30 02:42:49;;;;;;;2.58;1.60;;;6.80;99.90;;;;;;7400961;19;19915;-76
2023/04/30 02:45:18;;;;;;;5.72;1.88;;;6.90;99.90;;;;;;7401045;19;19919;-75
2023/04/30 02:47:47;;;;;;;3.60;1.63;;;6.90;99.90;;;;;;7402082;19;20352;-76
2023/04/30 02:50:19;;;;;;;4.65;1.75;;;6.80;99.90;;;;;;7403899;19;19939;-75
2023/04/30 02:52:49;;;;;;;4.65;1.90;;;6.60;99.90;;;;;;7401317;19;19918;-75
2023/04/30 02:55:18;;;;;;;4.22;1.63;;;6.60;99.90;;;;;;7401235;19;19919;-76
2023/04/30 02:57:47;;;;;;;7.45;2.00;;;6.60;99.90;;;;;;7401145;19;20261;-75
2023/04/30 03:00:16;;;;;;;4.80;1.98;;;7.80;99.90;;;;;;7401742;19;19931;-76
2023/04/30 03:02:45;;;;;;;5.07;2.40;;;6.60;99.90;;;;;;7399670;19;19922;-75
2023/04/30 03:05:14;;;;;;;4.40;1.77;;;6.70;99.90;;;;;;7398953;19;19918;-76
2023/04/30 03:07:46;;;;;;;3.67;1.52;;;6.60;99.90;;;;;;7405017;19;19939;-76
2023/04/30 03:10:15;;;;;;;6.07;2.03;;;7.40;99.90;;;;;;7405177;19;20291;-76
2023/04/30 03:12:43;;;;;;;4.22;1.60;;;7.20;99.90;;;;;;7400914;19;19919;-76
2023/04/30 03:15:13;;;;;;;5.88;1.90;;;6.50;99.90;;;;;;7399451;19;19915;-75
2023/04/30 03:17:42;;;;;;;4.40;1.60;;;6.50;99.90;;;;;;7400429;19;19927;-75
2023/04/30 03:20:13;;;;;;;6.70;1.77;;;6.30;99.90;;;;;;7402482;19;19922;-75
2023/04/30 03:22:42;;;;;;;4.30;2.00;;;6.40;99.90;;;;;;7402705;19;19914;-75
2023/04/30 03:25:13;;;;;;;4.90;1.58;;;6.50;99.90;;;;;;7400452;19;19923;-76
2023/04/30 03:27:42;;;;;;;5.47;1.77;;;6.50;99.90;;;;;;7400448;19;19919;-75
2023/04/30 03:30:11;;;;;;;6.28;1.90;;;6.30;99.90;;;;;;7400206;19;19918;-75
2023/04/30 03:32:40;;;;;;;3.67;1.92;;;6.40;99.90;;;;;;7403142;19;19918;-75
2023/04/30 03:35:10;;;;;;;5.68;2.05;;;6.30;99.90;;;;;;7402740;19;20356;-76
2023/04/30 03:37:39;;;;;;;2.35;1.50;;;6.30;99.90;;;;;;7398656;19;19919;-76
2023/04/30 03:40:10;;;;;;;3.53;1.45;;;6.30;99.90;;;;;;7403071;19;19922;-75
2023/04/30 03:42:41;;;;;;;4.75;1.63;;;6.20;99.90;;;;;;7399450;19;19918;-75
2023/04/30 03:45:11;;;;;;;3.10;1.23;;;6.20;99.90;;;;;;7398260;19;19923;-75
2023/04/30 03:47:39;;;;;;;2.88;1.20;;;6.20;99.90;;;;;;7401532;19;20348;-76
2023/04/30 03:50:10;;;;;;;5.00;1.25;;;6.40;99.90;;;;;;7398980;19;19921;-75
2023/04/30 03:52:39;;;;;;;3.15;1.30;;;6.30;99.90;;;;;;7399817;19;19925;-76
2023/04/30 03:55:10;;;;;;;5.75;1.50;;;6.50;99.90;;;;;;7399518;19;19922;-75
2023/04/30 03:57:42;;;;;;;5.57;1.40;;;6.30;99.90;;;;;;7401804;19;19926;-75
2023/04/30 04:00:12;;;;;;;2.28;1.20;;;6.40;99.90;;;;;;7399253;19;19915;-76
2023/04/30 04:02:41;;;;;;;5.25;1.30;;;6.10;99.90;;;;;;7398249;19;19926;-76
2023/04/30 04:05:10;;;;;;;2.65;1.23;;;6.80;99.90;;;;;;7399163;19;19915;-76
2023/04/30 04:07:39;;;;;;;3.30;1.50;;;6.00;99.90;;;;;;7399431;19;20599;-75
2023/04/30 04:10:09;;;;;;;5.88;1.73;;;6.10;99.90;;;;;;7401384;19;20341;-75
2023/04/30 04:12:40;;;;;;;4.05;1.65;;;6.10;99.90;;;;;;7398680;19;19926;-76
2023/04/30 04:15:12;;;;;;;3.63;1.35;;;6.50;99.90;;;;;;7399732;19;19918;-76
2023/04/30 04:17:41;;;;;;;3.60;2.28;;;6.10;99.90;;;;;;7400039;19;19922;-76
2023/04/30 04:20:12;;;;;;;3.88;1.73;;;6.00;99.90;;;;;;7398805;19;19926;-76
2023/04/30 04:22:40;;;;;;;5.05;1.80;;;5.90;99.90;;;;;;7398550;19;19927;-75
2023/04/30 04:25:10;;;;;;;4.68;1.67;;;6.00;99.90;;;;;;7398462;19;19918;-76
2023/04/30 04:27:42;;;;;;;3.15;2.00;;;6.10;99.90;;;;;;7401707;19;19953;-75
2023/04/30 04:30:12;;;;;;;2.35;1.67;;;6.00;99.90;;;;;;7400699;19;19918;-75
2023/04/30 04:32:45;;;;;;;4.07;1.77;;;6.00;99.90;;;;;;7408417;19;19918;-75
2023/04/30 04:35:14;;;;;;;4.53;2.22;;;6.40;99.90;;;;;;7404946;19;19957;-75
2023/04/30 04:37:43;;;;;;;4.10;1.90;;;5.90;99.90;;;;;;7405070;19;19928;-75
2023/04/30 04:40:12;;;;;;;6.40;2.30;;;5.90;99.90;;;;;;7404652;19;20245;-76
2023/04/30 04:42:44;;;;;;;6.30;2.55;;;6.10;99.90;;;;;;7404601;19;19919;-77
2023/04/30 04:45:14;;;;;;;5.30;1.88;;;6.00;99.90;;;;;;7404692;19;19914;-76
2023/04/30 04:47:43;;;;;;;3.85;1.98;;;6.00;99.90;;;;;;7406049;19;20344;-76
2023/04/30 04:50:13;;;;;;;6.28;2.00;;;5.90;99.90;;;;;;7401180;19;19910;-76
2023/04/30 04:52:42;;;;;;;4.70;2.20;;;5.90;99.90;;;;;;7404626;19;19929;-75
2023/04/30 04:55:12;;;;;;;4.65;2.25;;;6.70;99.90;;;;;;7405271;19;19921;-76
2023/04/30 04:57:44;;;;;;;4.47;2.22;;;6.00;99.90;;;;;;7404758;19;19990;-76
2023/04/30 05:00:15;;;;;;;5.53;3.50;;;6.00;99.90;;;;;;7403674;19;19922;-76
2023/04/30 05:02:44;;;;;;;6.90;2.50;;;6.00;99.90;;;;;;7402531;19;20284;-75
2023/04/30 05:05:13;;;;;;;6.70;3.50;;;7.90;99.90;;;;;;7405247;19;19918;-75
2023/04/30 05:07:42;;;;;;;4.05;2.08;;;6.10;99.90;;;;;;7404038;19;19974;-75
2023/04/30 05:10:11;;;;;;;4.40;1.75;;;6.10;99.90;;;;;;7406094;19;20263;-75
2023/04/30 05:12:40;;;;;;;5.07;2.20;;;6.00;99.90;;;;;;7403637;19;19942;-76
2023/04/30 05:15:12;;;;;;;6.68;2.58;;;6.10;99.90;;;;;;7401409;19;19918;-76
2023/04/30 05:17:41;;;;;;;4.72;2.45;;;6.20;99.90;;;;;;7405241;19;19919;-75
2023/04/30 05:20:11;;;;;;;5.28;2.30;;;6.30;99.90;;;;;;7403390;19;20355;-75
2023/04/30 05:22:40;;;;;;;4.43;2.33;;;6.40;99.90;;;;;;7407457;19;19919;-76
2023/04/30 05:25:10;;;;;;;5.72;2.05;;;6.50;99.90;;;;;;7403697;19;19915;-75
2023/04/30 05:27:39;;;;;;;4.75;2.00;;;6.60;99.90;;;;;;7403257;19;20367;-75
2023/04/30 05:30:14;;;;;;;7.75;2.30;;;6.60;99.90;;;;;;7402103;19;19952;-75
2023/04/30 05:32:49;;;;;;;4.68;2.15;;;6.60;99.90;;;;;;7407285;19;19928;-76
2023/04/30 05:35:18;;;;;;;6.32;2.60;;;6.60;99.90;;;;;;7403685;19;20355;-76
2023/04/30 05:37:47;;;;;;;4.10;1.98;;;6.80;99.90;;;;;;7403094;19;19922;-75
2023/04/30 05:40:17;;;;;;;7.45;2.67;;;6.90;99.90;;;;;;7405940;19;19938;-75
2023/04/30 05:42:46;;;;;;;4.93;2.13;;;6.90;99.90;;;;;;7402121;19;19925;-75
2023/04/30 05:45:17;;;;;;;4.45;2.03;;;7.50;99.90;;;;;;7403755;19;19919;-76
2023/04/30 05:47:46;;;;;;;5.13;2.25;;;7.00;99.90;;;;;;7404567;19;19914;-76
2023/04/30 05:50:15;;;;;;;6.13;2.75;;;7.00;99.90;;;;;;7400438;19;19926;-75
2023/04/30 05:52:44;;;;;;;6.13;2.42;;;7.00;99.90;;;;;;7402767;19;19927;-75
2023/04/30 05:55:14;;;;;;;9.43;2.60;;;7.20;99.90;;;;;;7402484;19;19921;-76
2023/04/30 05:57:42;;;;;;;7.05;2.42;;;7.10;99.90;;;;;;7406954;19;19915;-76
2023/04/30 06:00:12;;;;;;;8.23;2.40;;;7.30;99.90;;;;;;7402793;19;19918;-76
2023/04/30 06:02:44;;;;;;;6.38;2.40;;;7.30;99.90;;;;;;7403067;19;19922;-76
2023/04/30 06:05:13;;;;;;;3.25;1.55;;;7.30;99.90;;;;;;7405477;19;19928;-75
2023/04/30 06:07:42;;;;;;;4.78;1.88;;;7.30;99.90;;;;;;7405065;19;19918;-76
2023/04/30 06:10:12;;;;;;;3.40;1.75;;;7.30;99.90;;;;;;7406391;19;19978;-76
2023/04/30 06:12:41;;;;;;;6.40;2.08;;;7.30;99.90;;;;;;7402235;19;19986;-75
2023/04/30 06:15:10;;;;;;;8.30;1.80;;;7.40;99.90;;;;;;7400525;19;19926;-75
2023/04/30 06:17:39;;;;;;;4.95;1.98;;;7.40;99.90;;;;;;7403232;19;19919;-76
2023/04/30 06:20:13;;;;;;;3.28;1.80;;;7.20;99.90;;;;;;7401716;19;19988;-76
2023/04/30 06:22:42;;;;;;;3.75;2.10;;;7.40;99.90;;;;;;7402941;19;20281;-75
2023/04/30 06:25:12;;;;;;;6.80;2.55;;;7.30;99.90;;;;;;7401963;19;19925;-75
2023/04/30 06:27:40;;;;;;;9.90;2.47;;;7.30;99.90;;;;;;7402504;19;19930;-76
2023/04/30 06:30:11;;;;;;;5.82;2.45;;;7.30;99.90;;;;;;7402119;19;19929;-75
2023/04/30 06:32:40;;;;;;;5.57;2.20;;;7.30;99.90;;;;;;7402517;19;19915;-76
2023/04/30 06:35:12;;;;;;;8.65;2.30;;;7.30;99.90;;;;;;7402063;19;20340;-76
2023/04/30 06:37:40;;;;;;;5.15;1.75;;;7.30;99.90;;;;;;7401869;19;19918;-76
2023/04/30 06:40:10;;;;;;;7.18;1.88;;;7.40;99.90;;;;;;7401741;19;19978;-75
2023/04/30 06:42:39;;;;;;;9.05;2.35;;;7.50;99.90;;;;;;7401330;19;20013;-76
2023/04/30 06:45:09;;;;;;;4.50;2.40;;;7.40;99.90;;;;;;7402058;19;19921;-76
2023/04/30 06:47:40;;;;;;;7.38;2.40;;;7.40;99.90;;;;;;7402515;19;20022;-75
2023/04/30 06:50:14;;;;;;;4.15;1.90;;;7.40;99.90;;;;;;7399776;19;19935;-75
2023/04/30 06:52:43;;;;;;;5.97;2.30;;;7.60;99.90;;;;;;7398088;19;19923;-75
2023/04/30 06:55:12;;;;;;;7.38;2.28;;;7.60;99.90;;;;;;7400700;19;20348;-76
2023/04/30 06:57:42;;;;;;;7.57;2.15;;;7.70;99.90;;;;;;7401024;19;19933;-75
2023/04/30 07:00:14;;;;;;;9.82;2.15;;;7.90;99.90;;;;;;7400758;19;19921;-75
2023/04/30 07:02:43;;;;;;;6.90;2.30;;;7.90;99.90;;;;;;7400347;19;19922;-75
2023/04/30 07:05:15;;;;;;;8.65;2.13;;;7.80;99.90;;;;;;7403767;19;19919;-75
2023/04/30 07:07:43;;;;;;;9.80;2.28;;;7.80;99.90;;;;;;7400635;19;19918;-75
2023/04/30 07:10:13;;;;;;;22.42;5.38;;;8.00;99.90;;;;;;7404208;19;19922;-75
2023/04/30 07:12:42;;;;;;;21.63;4.95;;;8.00;99.90;;;;;;7400760;19;19925;-77
2023/04/30 07:15:11;;;;;;;8.55;1.90;;;8.10;99.90;;;;;;7398906;19;20000;-75
2023/04/30 07:17:40;;;;;;;10.77;2.30;;;8.00;99.90;;;;;;7401534;19;20264;-75
2023/04/30 07:20:11;;;;;;;5.22;1.80;;;8.30;99.90;;;;;;7400145;19;19942;-76
2023/04/30 07:22:44;;;;;;;6.88;1.92;;;8.30;99.90;;;;;;7403487;19;19970;-75
2023/04/30 07:25:13;;;;;;;8.82;2.72;;;8.40;99.90;;;;;;7400621;19;19915;-75
2023/04/30 07:27:43;;;;;;;5.03;1.75;;;8.40;99.90;;;;;;7402568;19;19919;-76
2023/04/30 07:30:13;;;;;;;5.65;1.80;;;8.40;99.90;;;;;;7403914;19;19923;-75
2023/04/30 07:32:43;;;;;;;7.78;2.40;;;8.40;99.90;;;;;;7400655;19;19939;-76
2023/04/30 07:35:14;;;;;;;7.25;2.20;;;8.70;99.90;;;;;;7399748;19;20360;-75
2023/04/30 07:37:46;;;;;;;4.70;2.42;;;8.70;99.90;;;;;;7400920;19;19926;-75
2023/04/30 07:40:15;;;;;;;10.30;2.22;;;8.90;99.90;;;;;;7400148;19;19919;-75
2023/04/30 07:42:44;;;;;;;7.75;1.75;;;9.00;99.90;;;;;;7400076;19;19922;-75
2023/04/30 07:45:14;;;;;;;7.90;2.10;;;8.90;99.90;;;;;;7399544;19;19926;-75
2023/04/30 07:47:43;;;;;;;7.90;1.95;;;9.10;99.90;;;;;;7401512;19;19922;-75
2023/04/30 07:50:13;;;;;;;7.70;2.13;;;9.10;99.90;;;;;;7398577;19;20266;-75
2023/04/30 07:52:42;;;;;;;2.78;1.52;;;8.90;99.90;;;;;;7398812;19;19914;-75
2023/04/30 07:55:14;;;;;;;10.57;2.40;;;9.10;99.90;;;;;;7400712;19;19930;-75
2023/04/30 07:57:44;;;;;;;5.18;2.03;;;9.10;99.90;;;;;;7399058;19;20279;-75
2023/04/30 08:00:14;;;;;;;6.68;2.00;;;9.00;99.90;;;;;;7399277;19;19918;-75
2023/04/30 08:02:44;;;;;;;5.75;2.08;;;9.00;99.90;;;;;;7398047;19;19918;-75
2023/04/30 08:05:13;;;;;;;7.10;1.45;;;9.00;99.90;;;;;;7398108;19;20257;-75
2023/04/30 08:07:43;;;;;;;4.57;1.90;;;9.20;99.90;;;;;;7399247;19;19915;-76
2023/04/30 08:10:15;;;;;;;22.70;5.05;;;9.00;99.90;;;;;;7400320;19;20392;-75
2023/04/30 08:12:44;;;;;;;8.25;3.05;;;9.00;99.90;;;;;;7400586;19;19929;-76
2023/04/30 08:15:13;;;;;;;3.33;1.92;;;9.10;99.90;;;;;;7397099;19;19918;-76
2023/04/30 08:17:42;;;;;;;5.70;1.70;;;9.20;99.90;;;;;;7400203;19;19930;-77
2023/04/30 08:20:12;;;;;;;5.18;1.80;;;9.30;99.90;;;;;;7398126;19;20379;-76
2023/04/30 08:22:41;;;;;;;7.90;2.15;;;9.20;99.90;;;;;;7398548;19;20263;-76
2023/04/30 08:25:15;;;;;;;7.65;1.95;;;9.20;99.90;;;;;;7398976;19;20005;-76
2023/04/30 08:27:45;;;;;;;12.50;2.28;;;9.40;99.90;;;;;;7400299;19;19915;-76
2023/04/30 08:30:14;;;;;;;11.18;1.80;;;9.50;99.90;;;;;;7400495;19;19918;-76
2023/04/30 08:32:43;;;;;;;4.47;1.58;;;9.50;99.90;;;;;;7398744;19;19929;-76
2023/04/30 08:35:12;;;;;;;7.70;1.85;;;9.50;99.90;;;;;;7399325;19;20386;-75
2023/04/30 08:37:41;;;;;;;7.60;1.95;;;9.60;99.90;;;;;;7399686;19;20026;-76
2023/04/30 08:40:11;;;;;;;6.63;1.83;;;9.80;99.90;;;;;;7398467;19;19921;-76
2023/04/30 08:42:48;;;;;;;5.20;2.08;;;9.80;99.90;;;;;;7397459;19;19914;-75
2023/04/30 08:45:17;;;;;;;8.02;2.45;;;9.80;99.90;;;;;;7397433;19;19925;-76
2023/04/30 08:47:47;;;;;;;5.93;2.47;;;10.00;99.90;;;;;;7401333;19;19954;-75
2023/04/30 08:50:16;;;;;;;4.75;2.10;;;9.90;99.90;;;;;;7396193;19;19922;-76
2023/04/30 08:52:45;;;;;;;8.93;2.20;;;9.70;99.90;;;;;;7397761;19;19947;-75
2023/04/30 08:55:14;;;;;;;8.70;2.05;;;10.20;99.90;;;;;;7397520;19;19915;-76
2023/04/30 08:57:47;;;;;;;10.38;2.35;;;10.00;99.90;;;;;;7397669;19;19914;-76
2023/04/30 09:00:16;;;;;;;7.05;2.10;;;10.10;99.90;;;;;;7396938;19;19915;-75
2023/04/30 09:02:45;;;;;;;8.68;2.17;;;10.20;99.90;;;;;;7396676;19;19922;-76
2023/04/30 09:05:16;;;;;;;4.10;1.85;;;10.20;99.90;;;;;;7397645;19;19935;-76
2023/04/30 09:07:46;;;;;;;4.13;1.95;;;10.20;99.90;;;;;;7398158;19;19914;-77
2023/04/30 09:10:19;;;;;;;5.55;1.90;;;10.40;99.90;;;;;;7396624;19;19925;-75
2023/04/30 09:13:00;;;;;;;5.13;1.80;;;10.50;99.90;;;;;;7397236;19;19923;-75
2023/04/30 09:15:29;;;;;;;4.63;1.70;;;10.60;99.90;;;;;;7397154;19;20354;-75
2023/04/30 09:18:14;;;;;;;7.80;2.05;;;10.60;99.90;;;;;;7405543;19;19929;-76
2023/04/30 09:20:57;;;;;;;3.10;1.88;;;10.60;99.90;;;;;;7405783;19;19933;-76
2023/04/30 09:23:27;;;;;;;5.57;1.95;;;10.80;99.90;;;;;;7404867;19;19921;-77
2023/04/30 09:25:56;;;;;;;4.38;1.52;;;10.80;99.90;;;;;;7405919;19;19926;-77
2023/04/30 09:28:28;;;;;;;4.10;1.67;;;10.90;99.90;;;;;;7403998;19;19923;-77
2023/04/30 09:30:59;;;;;;;5.88;1.70;;;10.70;99.90;;;;;;7401686;19;19942;-77
2023/04/30 09:33:29;;;;;;;4.53;1.85;;;10.80;99.90;;;;;;7403058;19;19915;-76
2023/04/30 09:35:58;;;;;;;4.07;1.60;;;10.80;99.90;;;;;;7402703;19;20316;-76
2023/04/30 09:38:31;;;;;;;4.82;1.88;;;10.80;99.90;;;;;;7406687;19;20330;-76
2023/04/30 09:41:01;;;;;;;4.32;1.63;;;11.10;99.90;;;;;;7402789;19;20399;-76
2023/04/30 09:43:33;;;;;;;5.60;2.00;;;11.20;99.90;;;;;;7402896;19;19929;-76
2023/04/30 09:46:02;;;;;;;5.97;1.80;;;12.80;99.90;;;;;;7405158;19;20257;-76
2023/04/30 09:48:31;;;;;;;2.78;1.52;;;11.60;99.90;;;;;;7404087;19;19930;-77
2023/04/30 09:51:00;;;;;;;4.90;2.10;;;11.60;99.90;;;;;;7404159;19;19922;-77
2023/04/30 09:53:29;;;;;;;9.23;2.00;;;11.50;99.90;;;;;;7402403;19;19914;-76
2023/04/30 09:56:00;;;;;;;5.50;2.42;;;11.60;99.90;;;;;;7406672;19;19918;-77
2023/04/30 09:58:33;;;;;;;5.75;2.20;;;11.90;99.90;;;;;;7402771;19;19922;-77
2023/04/30 10:01:06;;;;;;;7.40;2.45;;;11.90;99.90;;;;;;7402260;19;19943;-76
2023/04/30 10:03:37;;;;;;;8.07;1.55;;;11.90;99.90;;;;;;7401017;19;19949;-77
2023/04/30 10:06:09;;;;;;;6.78;2.10;;;12.00;99.90;;;;;;7400226;19;20245;-77
2023/04/30 10:08:44;;;;;;;8.77;2.38;;;11.90;99.90;;;;;;7403794;19;19914;-76
2023/04/30 10:11:17;;;;;;;4.70;2.03;;;12.10;99.90;;;;;;7403333;19;19933;-76
2023/04/30 10:13:54;;;;;;;5.22;1.77;;;12.20;99.90;;;;;;7400995;19;19938;-75
2023/04/30 10:16:35;;;;;;;10.38;2.33;;;12.30;99.90;;;;;;7401877;19;19921;-76
2023/04/30 10:19:09;;;;;;;4.97;2.60;;;12.40;99.90;;;;;;7405368;19;19922;-77
2023/04/30 10:21:44;;;;;;;4.72;2.38;;;12.60;99.90;;;;;;7401403;19;19919;-76
2023/04/30 10:24:14;;;;;;;6.25;2.30;;;12.70;99.90;;;;;;7403471;19;19924;-77
2023/04/30 10:26:43;;;;;;;4.50;1.98;;;12.90;99.90;;;;;;7401495;19;19929;-77
2023/04/30 10:29:16;;;;;;;6.03;2.28;;;12.70;99.90;;;;;;7404461;19;19953;-77
2023/04/30 10:31:47;;;;;;;3.10;1.70;;;12.80;99.90;;;;;;7399926;19;19982;-77
2023/04/30 10:34:23;;;;;;;5.93;1.95;;;13.00;99.90;;;;;;7402308;19;19929;-78
2023/04/30 10:36:57;;;;;;;5.82;2.30;;;13.00;99.90;;;;;;7401365;19;20356;-77
2023/04/30 10:39:29;;;;;;;3.08;1.80;;;13.00;99.90;;;;;;7401385;19;19922;-76
2023/04/30 10:42:04;;;;;;;5.40;1.58;;;12.90;99.90;;;;;;7400729;19;19919;-77
2023/04/30 10:44:38;;;;;;;4.78;1.52;;;13.10;99.90;;;;;;7402007;19;20213;-76
2023/04/30 10:47:08;;;;;;;4.28;2.17;;;13.20;99.90;;;;;;7405487;19;19929;-77
2023/04/30 10:49:38;;;;;;;4.60;1.83;;;13.40;99.90;;;;;;7401162;19;19921;-77
2023/04/30 10:52:07;;;;;;;3.83;1.83;;;13.40;99.90;;;;;;7399509;19;19936;-77
2023/04/30 10:54:38;;;;;;;6.10;2.28;;;13.50;99.90;;;;;;7401470;19;19982;-77
2023/04/30 10:57:13;;;;;;;10.27;2.00;;;13.70;99.90;;;;;;7401044;19;19918;-78
2023/04/30 10:59:53;;;;;;;3.75;1.50;;;12.90;99.90;;;;;;7402405;19;20312;-77
2023/04/30 11:02:22;;;;;;;6.50;2.28;;;13.70;99.90;;;;;;7401494;19;20546;-78
2023/04/30 11:05:13;;;;;;;7.75;2.20;;;13.40;99.90;;;;;;7401003;19;19915;-77
2023/04/30 11:07:52;;;;;;;5.47;1.92;;;13.50;99.90;;;;;;7400775;19;19919;-77
2023/04/30 11:10:25;;;;;;;4.80;1.85;;;13.50;99.90;;;;;;7400256;19;19936;-76
2023/04/30 11:12:55;;;;;;;6.05;1.50;;;13.40;99.90;;;;;;7400515;19;20570;-77
2023/04/30 11:15:27;;;;;;;4.07;1.98;;;13.70;99.90;;;;;;7398254;19;19918;-77
2023/04/30 11:17:59;;;;;;;4.50;1.85;;;13.70;99.90;;;;;;7401882;19;19918;-77
2023/04/30 11:20:29;;;;;;;4.80;1.60;;;13.90;99.90;;;;;;7403244;19;19919;-76
2023/04/30 11:23:13;;;;;;;4.68;1.70;;;14.00;99.90;;;;;;7400995;19;19915;-77
2023/04/30 11:25:43;;;;;;;4.97;1.67;;;13.90;99.90;;;;;;7400149;19;20272;-77
2023/04/30 11:28:17;;;;;;;5.50;1.65;;;13.80;99.90;;;;;;7400513;19;19914;-77
2023/04/30 11:30:56;;;;;;;3.97;1.92;;;13.70;99.90;;;;;;7400020;19;20363;-77
2023/04/30 11:33:26;;;;;;;8.40;1.80;;;13.70;99.90;;;;;;7400031;19;20344;-78
2023/04/30 11:35:56;;;;;;;4.97;1.50;;;14.00;99.90;;;;;;7400530;19;20435;-77
2023/04/30 11:38:28;;;;;;;6.55;1.73;;;14.00;99.90;;;;;;7398816;19;19919;-77
2023/04/30 11:40:59;;;;;;;2.33;1.60;;;14.30;99.90;;;;;;7399169;19;19919;-78
2023/04/30 11:43:29;;;;;;;5.47;1.65;;;14.20;99.90;;;;;;7400171;19;19973;-77
2023/04/30 11:46:14;;;;;;;8.07;2.00;;;14.40;99.90;;;;;;7399833;19;20358;-78
2023/04/30 11:48:45;;;;;;;4.32;1.60;;;14.30;99.90;;;;;;7403048;19;19925;-78
2023/04/30 11:51:18;;;;;;;3.40;1.75;;;14.40;99.90;;;;;;7398733;19;19919;-77
2023/04/30 11:53:48;;;;;;;6.00;1.85;;;14.40;99.90;;;;;;7401896;19;20478;-78
2023/04/30 11:56:20;;;;;;;5.38;1.60;;;14.40;99.90;;;;;;7399614;19;19919;-77
2023/04/30 11:58:49;;;;;;;3.22;1.60;;;14.30;99.90;;;;;;7400092;19;19948;-77
2023/04/30 12:01:22;;;;;;;4.30;1.35;;;14.40;99.90;;;;;;7399647;19;20021;-77
2023/04/30 12:03:53;;;;;;;4.13;1.63;;;14.70;99.90;;;;;;7398079;19;20050;-77
2023/04/30 12:06:27;;;;;;;4.75;2.92;;;14.80;99.90;;;;;;7399860;19;20336;-77
2023/04/30 12:08:57;;;;;;;4.70;1.30;;;15.00;99.90;;;;;;7401341;19;19991;-77
2023/04/30 12:11:27;;;;;;;2.35;1.50;;;15.10;99.90;;;;;;7401219;19;19933;-76
2023/04/30 12:13:57;;;;;;;5.35;1.65;;;15.20;99.90;;;;;;7398405;19;19938;-77
2023/04/30 12:16:30;;;;;;;4.10;1.50;;;15.40;99.90;;;;;;7398586;19;19934;-76
2023/04/30 12:18:59;;;;;;;3.28;1.80;;;15.30;99.90;;;;;;7402236;19;20344;-76
2023/04/30 12:21:28;;;;;;;3.55;1.20;;;15.60;99.90;;;;;;7399879;19;19923;-76
2023/04/30 12:23:57;;;;;;;6.78;1.33;;;15.80;99.90;;;;;;7398417;19;20319;-76
2023/04/30 12:26:26;;;;;;;3.60;1.13;;;15.80;99.90;;;;;;7398759;19;19914;-76
2023/04/30 12:28:57;;;;;;;6.63;1.38;;;16.10;99.90;;;;;;7402909;19;19919;-77
2023/04/30 12:31:28;;;;;;;3.05;1.40;;;16.00;99.90;;;;;;7398466;19;19923;-77
2023/04/30 12:33:58;;;;;;;4.22;1.33;;;16.20;99.90;;;;;;7399410;19;19915;-78
2023/04/30 12:36:35;;;;;;;2.65;1.40;;;16.30;99.90;;;;;;7399586;19;19918;-76
2023/04/30 12:39:12;;;;;;;6.50;1.27;;;16.40;99.90;;;;;;7398304;19;19926;-76
2023/04/30 12:41:43;;;;;;;4.32;1.45;;;16.30;99.90;;;;;;7397260;19;19914;-75
2023/04/30 12:44:23;;;;;;;4.50;1.83;;;16.60;99.90;;;;;;7398736;19;19953;-77
2023/04/30 12:46:59;;;;;;;3.30;1.27;;;16.40;99.90;;;;;;7397663;19;20371;-77
2023/04/30 12:49:29;;;;;;;9.68;1.40;;;16.60;99.90;;;;;;7397423;19;19915;-77
2023/04/30 12:52:02;;;;;;;3.35;1.63;;;16.70;99.90;;;;;;7400981;19;19911;-78
2023/04/30 12:54:35;;;;;;;5.80;1.77;;;16.70;99.90;;;;;;7405090;19;19922;-77
2023/04/30 12:57:06;;;;;;;7.75;1.55;;;16.70;99.90;;;;;;7403982;19;19923;-77
2023/04/30 12:59:36;;;;;;;2.95;1.40;;;16.70;99.90;;;;;;7404844;19;20313;-77
2023/04/30 13:02:14;;;;;;;5.03;1.50;;;16.80;99.90;;;;;;7406026;19;19918;-77
2023/04/30 13:04:44;;;;;;;2.55;1.23;;;16.90;99.90;;;;;;7403597;19;19918;-76
2023/04/30 13:07:13;;;;;;;2.65;1.20;;;16.90;99.90;;;;;;7403993;19;19937;-77
2023/04/30 13:09:42;;;;;;;2.55;1.10;;;17.00;99.90;;;;;;7407263;19;19982;-77
2023/04/30 13:12:11;;;;;;;3.10;1.30;;;17.10;99.90;;;;;;7401816;19;20408;-77